createdAt,value
2023-03-21T00:01:59.276Z,10.72
2023-03-21T00:06:51.836Z,11.20
2023-03-21T00:11:43.655Z,10.88
2023-03-21T00:16:36.736Z,11.29
2023-03-21T00:26:45.123Z,10.13
2023-03-21T00:31:37.367Z,11.20
2023-03-21T00:36:29.448Z,10.93
2023-03-21T00:41:39.059Z,9.70
2023-03-21T00:46:45.224Z,10.27
2023-03-21T00:51:43.805Z,11.10
2023-03-21T00:56:35.528Z,10.57
2023-03-21T01:01:32.020Z,11.05
2023-03-21T01:06:24.073Z,9.71
2023-03-21T01:11:20.986Z,11.04
2023-03-21T01:16:12.868Z,9.61
2023-03-21T01:21:08.485Z,8.92
2023-03-21T01:26:00.256Z,10.98
2023-03-21T01:30:52.563Z,11.22
2023-03-21T01:35:50.279Z,11.12
2023-03-21T01:40:48.885Z,10.85
2023-03-21T01:46:21.493Z,11.16
2023-03-21T01:51:41.282Z,10.16
2023-03-21T01:56:37.134Z,9.24
2023-03-21T02:01:34.836Z,9.94
2023-03-21T02:06:38.402Z,11.15
2023-03-21T02:11:56.811Z,10.25
2023-03-21T02:17:13.188Z,10.24
2023-03-21T02:22:05.531Z,10.76
2023-03-21T02:27:14.744Z,10.80
2023-03-21T02:32:22.710Z,10.90
2023-03-21T02:37:38.873Z,10.75
2023-03-21T02:42:48.875Z,10.26
2023-03-21T02:47:52.705Z,10.83
2023-03-21T02:52:48.227Z,10.95
2023-03-21T02:57:43.916Z,9.28
2023-03-21T03:02:37.770Z,9.93
2023-03-21T03:07:47.554Z,10.86
2023-03-21T03:12:49.473Z,10.06
2023-03-21T03:17:59.970Z,10.73
2023-03-21T03:23:04.095Z,10.83
2023-03-21T03:27:58.048Z,10.03
2023-03-21T03:32:55.472Z,7.92
2023-03-21T03:37:53.326Z,10.14
2023-03-21T03:42:52.185Z,8.77
2023-03-21T03:48:27.938Z,10.15
2023-03-21T03:53:28.504Z,10.19
2023-03-21T03:58:25.997Z,10.19
2023-03-21T04:03:23.297Z,8.96
2023-03-21T04:08:16.565Z,9.01
2023-03-21T04:13:13.216Z,9.13
2023-03-21T04:18:24.991Z,8.05
2023-03-21T04:23:18.945Z,9.51
2023-03-21T04:28:12.693Z,10.27
2023-03-21T04:33:27.536Z,10.64
2023-03-21T04:38:23.705Z,10.08
2023-03-21T04:43:15.984Z,8.96
2023-03-21T04:48:07.987Z,9.22
2023-03-21T04:52:59.918Z,8.85
2023-03-21T04:57:52.034Z,10.51
2023-03-21T05:02:46.225Z,10.15
2023-03-21T05:07:39.764Z,10.79
2023-03-21T05:12:31.933Z,10.57
2023-03-21T05:17:24.962Z,10.03
2023-03-21T05:22:19.223Z,9.90
2023-03-21T05:27:14.184Z,9.70
2023-03-21T05:32:10.042Z,8.09
2023-03-21T05:37:01.793Z,10.12
2023-03-21T05:42:12.634Z,10.48
2023-03-21T05:47:06.616Z,10.06
2023-03-21T05:52:10.695Z,10.37
2023-03-21T05:57:04.228Z,9.38
2023-03-21T06:02:15.988Z,9.87
2023-03-21T06:07:08.384Z,10.09
2023-03-21T06:12:04.674Z,10.89
2023-03-21T06:17:26.131Z,8.93
2023-03-21T06:22:23.039Z,7.62
2023-03-21T06:27:15.095Z,9.65
2023-03-21T06:32:18.820Z,9.30
2023-03-21T06:37:12.275Z,10.28
2023-03-21T06:42:04.354Z,9.72
2023-03-21T06:46:56.362Z,10.35
2023-03-21T06:51:48.153Z,10.07
2023-03-21T06:56:43.719Z,11.48
2023-03-21T07:01:38.884Z,10.93
2023-03-21T07:06:32.974Z,11.83
2023-03-21T07:11:25.664Z,10.13
2023-03-21T07:16:18.679Z,10.38
2023-03-21T07:21:11.149Z,9.72
2023-03-21T07:26:07.050Z,10.73
2023-03-21T07:31:02.653Z,11.27
2023-03-21T07:35:55.544Z,8.50
2023-03-21T07:40:48.828Z,11.68
2023-03-21T07:45:42.638Z,10.21
2023-03-21T07:50:34.611Z,10.65
2023-03-21T07:55:26.822Z,11.21
2023-03-21T08:00:23.239Z,10.83
2023-03-21T08:05:15.158Z,10.87
2023-03-21T08:10:07.860Z,10.74
2023-03-21T08:15:01.190Z,8.07
2023-03-21T08:19:53.014Z,10.44
2023-03-21T08:24:44.693Z,11.22
2023-03-21T08:29:40.928Z,10.59
2023-03-21T08:34:32.695Z,10.43
2023-03-21T08:39:25.118Z,10.77
2023-03-21T08:44:17.122Z,10.72
2023-03-21T08:49:08.772Z,9.68
2023-03-21T08:54:00.505Z,9.82
2023-03-21T08:58:52.179Z,10.23
2023-03-21T09:03:43.828Z,10.85
2023-03-21T09:08:35.474Z,11.02
2023-03-21T09:13:27.172Z,11.49
2023-03-21T09:18:22.363Z,10.70
2023-03-21T09:23:14.873Z,11.31
2023-03-21T09:28:06.800Z,11.20
2023-03-21T09:33:09.007Z,10.29
2023-03-21T09:38:01.406Z,12.05
2023-03-21T09:42:56.750Z,11.99
2023-03-21T09:47:53.329Z,10.49
2023-03-21T09:52:51.892Z,10.85
2023-03-21T09:57:45.808Z,10.98
2023-03-21T10:03:07.412Z,11.42
2023-03-21T10:07:59.196Z,11.89
2023-03-21T10:12:53.877Z,10.41
2023-03-21T10:17:52.954Z,11.41
2023-03-21T10:22:47.174Z,9.89
2023-03-21T10:27:38.934Z,10.69
2023-03-21T10:32:30.616Z,10.69
2023-03-21T10:37:23.160Z,11.10
2023-03-21T10:42:26.139Z,11.96
2023-03-21T10:47:31.694Z,10.71
2023-03-21T10:52:28.614Z,10.66
2023-03-21T10:57:23.071Z,12.13
2023-03-21T11:02:24.763Z,12.24
2023-03-21T11:07:19.311Z,12.16
2023-03-21T11:12:14.566Z,12.07
2023-03-21T11:17:18.752Z,12.18
2023-03-21T11:22:13.026Z,10.40
2023-03-21T11:27:09.273Z,11.99
2023-03-21T11:32:23.303Z,11.85
2023-03-21T11:37:32.055Z,11.18
2023-03-21T11:42:39.652Z,11.44
2023-03-21T11:47:31.692Z,11.51
2023-03-21T11:52:41.270Z,10.47
2023-03-21T11:57:52.838Z,11.37
2023-03-21T12:02:56.816Z,10.59
2023-03-21T12:08:08.969Z,11.32
2023-03-21T12:13:22.074Z,11.20
2023-03-21T12:18:35.721Z,11.07
2023-03-21T12:23:51.645Z,10.02
2023-03-21T12:29:05.278Z,11.49
2023-03-21T12:34:10.527Z,11.44
2023-03-21T12:39:24.417Z,10.79
2023-03-21T12:44:20.724Z,11.19
2023-03-21T12:49:26.599Z,9.55
2023-03-21T12:54:18.196Z,12.40
2023-03-21T12:59:28.121Z,13.11
2023-03-21T13:04:46.674Z,12.82
2023-03-21T13:09:40.658Z,12.76
2023-03-21T13:14:41.299Z,11.43
2023-03-21T13:19:50.467Z,11.94
2023-03-21T13:24:50.317Z,11.04
2023-03-21T13:29:49.717Z,12.46
2023-03-21T13:34:41.801Z,10.80
2023-03-21T13:39:33.616Z,10.97
2023-03-21T13:44:36.104Z,13.05
2023-03-21T13:49:29.188Z,12.82
2023-03-21T13:54:29.759Z,12.84
2023-03-21T13:59:42.887Z,11.50
2023-03-21T14:04:41.928Z,12.81
2023-03-21T14:09:50.697Z,11.94
2023-03-21T14:15:14.177Z,13.10
2023-03-21T14:20:42.208Z,13.12
2023-03-21T14:25:44.715Z,12.74
2023-03-21T14:30:42.100Z,12.71
2023-03-21T14:35:34.349Z,12.23
2023-03-21T14:40:28.488Z,10.88
2023-03-21T14:45:23.787Z,12.07
2023-03-21T14:50:15.653Z,12.18
2023-03-21T14:55:15.673Z,13.10
2023-03-21T15:00:14.569Z,13.57
2023-03-21T15:05:29.222Z,13.81
2023-03-21T15:10:21.522Z,13.65
2023-03-21T15:15:15.039Z,13.53
2023-03-21T15:20:10.159Z,12.37
2023-03-21T15:25:06.721Z,12.51
2023-03-21T15:29:58.676Z,13.22
2023-03-21T15:34:54.191Z,13.48
2023-03-21T15:39:45.992Z,13.11
2023-03-21T15:44:37.675Z,12.49
2023-03-21T15:49:33.813Z,14.17
2023-03-21T15:54:27.789Z,14.70
2023-03-21T15:59:19.671Z,13.19
2023-03-21T16:04:13.510Z,15.08
2023-03-21T16:09:25.203Z,12.43
2023-03-21T16:14:18.728Z,14.41
2023-03-21T16:19:10.527Z,14.21
2023-03-21T16:24:02.270Z,13.02
2023-03-21T16:28:54.755Z,14.42
2023-03-21T16:33:47.442Z,14.07
2023-03-21T16:38:39.275Z,14.58
2023-03-21T16:43:31.106Z,13.07
2023-03-21T16:48:23.030Z,14.17
2023-03-21T16:53:14.798Z,14.54
2023-03-21T16:58:06.747Z,13.69
2023-03-21T17:03:06.193Z,14.48
2023-03-21T17:08:02.159Z,13.72
2023-03-21T17:12:54.570Z,13.84
2023-03-21T17:17:48.725Z,11.60
2023-03-21T17:22:40.430Z,12.75
2023-03-21T17:27:32.129Z,14.14
2023-03-21T17:32:23.864Z,14.15
2023-03-21T17:37:16.272Z,12.59
2023-03-21T17:42:15.759Z,13.89
2023-03-21T17:47:07.754Z,11.67
2023-03-21T17:51:59.474Z,13.35
2023-03-21T17:56:51.758Z,13.56
2023-03-21T18:01:43.830Z,13.86
2023-03-21T18:06:37.302Z,12.09
2023-03-21T18:11:29.141Z,12.11
2023-03-21T18:16:23.444Z,12.96
2023-03-21T18:21:18.831Z,12.85
2023-03-21T18:26:16.479Z,13.48
2023-03-21T18:31:15.621Z,11.80
2023-03-21T18:36:13.904Z,13.20
2023-03-21T18:41:07.811Z,13.55
2023-03-21T18:45:59.783Z,12.05
2023-03-21T18:50:51.501Z,13.21
2023-03-21T18:55:46.424Z,11.52
2023-03-21T19:00:41.060Z,10.99
2023-03-21T19:05:33.185Z,12.15
2023-03-21T19:10:24.997Z,12.38
2023-03-21T19:15:19.610Z,13.09
2023-03-21T19:20:13.882Z,13.39
2023-03-21T19:25:07.261Z,13.32
2023-03-21T19:30:13.416Z,11.54
2023-03-21T19:35:07.432Z,13.04
2023-03-21T19:39:59.117Z,13.14
2023-03-21T19:44:50.971Z,10.80
2023-03-21T19:50:27.753Z,11.03
2023-03-21T19:54:55.185Z,12.59
2023-03-21T19:59:47.686Z,11.46
2023-03-21T20:04:39.959Z,13.05
2023-03-21T20:09:50.425Z,10.05
2023-03-21T20:14:47.685Z,11.01
2023-03-21T20:19:39.305Z,12.90
2023-03-21T20:24:31.138Z,12.86
2023-03-21T20:34:37.053Z,11.30
2023-03-21T20:39:30.070Z,10.61
2023-03-21T20:44:48.472Z,9.98
2023-03-21T20:49:33.715Z,11.02
2023-03-21T20:54:25.401Z,11.42
2023-03-21T20:59:26.149Z,11.82
2023-03-21T21:04:20.473Z,12.25
2023-03-21T21:09:12.373Z,11.56
2023-03-21T21:14:05.209Z,12.41
2023-03-21T21:18:56.920Z,9.08
2023-03-21T21:23:48.607Z,10.44
2023-03-21T21:28:43.274Z,11.94
2023-03-21T21:33:35.564Z,10.14
2023-03-21T21:38:29.245Z,10.37
2023-03-21T21:43:21.165Z,9.59
2023-03-21T21:48:14.111Z,10.89
2023-03-21T21:53:06.083Z,9.26
2023-03-21T21:58:00.543Z,11.19
2023-03-21T22:02:53.133Z,9.60
2023-03-21T22:07:54.198Z,7.07
2023-03-21T22:12:46.289Z,8.05
2023-03-21T22:17:39.423Z,9.62
2023-03-21T22:22:31.160Z,10.89
2023-03-21T22:27:22.867Z,8.95
2023-03-21T22:32:14.559Z,10.48
2023-03-21T22:37:06.326Z,9.36
2023-03-21T22:42:00.896Z,10.99
2023-03-21T22:46:52.617Z,8.90
2023-03-21T22:51:44.336Z,9.68
2023-03-21T22:56:36.336Z,7.70
2023-03-21T23:01:28.055Z,7.75
2023-03-21T23:06:19.806Z,10.66
2023-03-21T23:11:12.830Z,11.17
2023-03-21T23:16:06.060Z,11.32
2023-03-21T23:20:58.515Z,10.98
2023-03-21T23:25:50.720Z,9.69
2023-03-21T23:30:43.432Z,10.96
2023-03-21T23:35:38.995Z,9.84
2023-03-21T23:40:31.487Z,11.21
2023-03-21T23:45:23.162Z,9.63
2023-03-21T23:50:14.895Z,10.74
2023-03-21T23:55:06.834Z,10.03
2023-03-21T23:59:58.617Z,9.64
